sensor_id;sensor_type;location;lat;lon;timestamp;noise_LAeq;noise_LA_min;noise_LA_max;noise_LA01;noise_LA95
76261;Laerm;65076;52.362;6.588;2023-02-28T00:01:47;46.20;32.62;63.35;;
76261;Laerm;65076;52.362;6.588;2023-02-28T00:04:17;36.40;32.55;40.35;;
76261;Laerm;65076;52.362;6.588;2023-02-28T00:06:44;35.81;32.65;41.55;;
76261;Laerm;65076;52.362;6.588;2023-02-28T00:09:12;36.47;33.59;40.54;;
76261;Laerm;65076;52.362;6.588;2023-02-28T00:11:40;36.16;32.37;41.24;;
76261;Laerm;65076;52.362;6.588;2023-02-28T00:14:08;36.17;32.71;44.49;;
76261;Laerm;65076;52.362;6.588;2023-02-28T00:16:36;35.89;32.60;41.45;;
76261;Laerm;65076;52.362;6.588;2023-02-28T00:19:04;36.47;32.68;42.34;;
76261;Laerm;65076;52.362;6.588;2023-02-28T00:21:33;36.04;33.02;41.03;;
76261;Laerm;65076;52.362;6.588;2023-02-28T00:24:02;35.65;32.83;39.36;;
76261;Laerm;65076;52.362;6.588;2023-02-28T00:26:30;35.51;31.99;39.49;;
76261;Laerm;65076;52.362;6.588;2023-02-28T00:28:59;68.59;33.04;82.69;;
76261;Laerm;65076;52.362;6.588;2023-02-28T00:31:27;41.03;33.21;52.06;;
76261;Laerm;65076;52.362;6.588;2023-02-28T00:33:55;37.76;33.94;44.73;;
76261;Laerm;65076;52.362;6.588;2023-02-28T00:36:23;38.73;34.24;47.67;;
76261;Laerm;65076;52.362;6.588;2023-02-28T00:38:52;37.79;33.72;44.25;;
76261;Laerm;65076;52.362;6.588;2023-02-28T00:41:20;37.63;33.93;41.82;;
76261;Laerm;65076;52.362;6.588;2023-02-28T00:43:48;38.31;34.07;43.77;;
76261;Laerm;65076;52.362;6.588;2023-02-28T00:46:17;37.62;33.86;43.13;;
76261;Laerm;65076;52.362;6.588;2023-02-28T00:48:45;38.16;34.07;43.78;;
76261;Laerm;65076;52.362;6.588;2023-02-28T00:51:13;38.51;33.73;46.08;;
76261;Laerm;65076;52.362;6.588;2023-02-28T00:53:41;36.41;32.93;39.28;;
76261;Laerm;65076;52.362;6.588;2023-02-28T00:56:10;36.75;33.23;48.07;;
76261;Laerm;65076;52.362;6.588;2023-02-28T00:58:38;38.43;34.67;46.48;;
76261;Laerm;65076;52.362;6.588;2023-02-28T01:01:07;36.78;32.91;45.78;;
76261;Laerm;65076;52.362;6.588;2023-02-28T01:03:35;36.46;33.24;40.15;;
76261;Laerm;65076;52.362;6.588;2023-02-28T01:06:03;36.71;33.18;40.69;;
76261;Laerm;65076;52.362;6.588;2023-02-28T01:08:31;36.09;33.20;39.33;;
76261;Laerm;65076;52.362;6.588;2023-02-28T01:11:10;36.96;33.67;42.11;;
76261;Laerm;65076;52.362;6.588;2023-02-28T01:13:42;37.07;33.30;43.09;;
76261;Laerm;65076;52.362;6.588;2023-02-28T01:16:10;37.28;33.53;41.07;;
76261;Laerm;65076;52.362;6.588;2023-02-28T01:18:40;37.97;34.19;42.89;;
76261;Laerm;65076;52.362;6.588;2023-02-28T01:21:12;37.15;33.80;41.40;;
76261;Laerm;65076;52.362;6.588;2023-02-28T01:23:42;36.92;33.21;41.06;;
76261;Laerm;65076;52.362;6.588;2023-02-28T01:26:16;36.34;33.25;41.36;;
76261;Laerm;65076;52.362;6.588;2023-02-28T01:28:45;35.71;33.05;38.52;;
76261;Laerm;65076;52.362;6.588;2023-02-28T01:31:14;36.54;32.92;44.85;;
76261;Laerm;65076;52.362;6.588;2023-02-28T01:33:42;36.27;32.45;40.49;;
76261;Laerm;65076;52.362;6.588;2023-02-28T01:36:13;35.96;32.89;39.23;;
76261;Laerm;65076;52.362;6.588;2023-02-28T01:38:41;35.74;32.43;39.53;;
76261;Laerm;65076;52.362;6.588;2023-02-28T01:41:17;36.99;33.10;41.78;;
76261;Laerm;65076;52.362;6.588;2023-02-28T01:47:10;46.24;33.33;64.90;;
76261;Laerm;65076;52.362;6.588;2023-02-28T01:49:39;37.54;33.57;42.24;;
76261;Laerm;65076;52.362;6.588;2023-02-28T01:52:09;37.83;34.23;42.85;;
76261;Laerm;65076;52.362;6.588;2023-02-28T01:54:41;38.28;33.85;43.61;;
76261;Laerm;65076;52.362;6.588;2023-02-28T01:57:15;37.27;33.64;41.33;;
76261;Laerm;65076;52.362;6.588;2023-02-28T01:59:51;36.72;33.29;40.78;;
76261;Laerm;65076;52.362;6.588;2023-02-28T02:02:22;37.05;33.39;44.40;;
76261;Laerm;65076;52.362;6.588;2023-02-28T02:04:56;37.27;33.48;43.02;;
76261;Laerm;65076;52.362;6.588;2023-02-28T02:07:36;37.23;34.10;41.87;;
76261;Laerm;65076;52.362;6.588;2023-02-28T02:10:11;67.85;33.42;80.18;;
76261;Laerm;65076;52.362;6.588;2023-02-28T02:13:17;49.71;33.46;73.54;;
76261;Laerm;65076;52.362;6.588;2023-02-28T02:16:04;39.53;32.80;50.87;;
76261;Laerm;65076;52.362;6.588;2023-02-28T02:18:49;37.42;33.24;49.79;;
76261;Laerm;65076;52.362;6.588;2023-02-28T02:21:55;36.26;32.76;42.53;;
76261;Laerm;65076;52.362;6.588;2023-02-28T02:25:14;35.88;33.23;39.09;;
76261;Laerm;65076;52.362;6.588;2023-02-28T02:28:27;36.31;32.81;43.79;;
76261;Laerm;65076;52.362;6.588;2023-02-28T02:31:41;36.25;32.80;43.01;;
76261;Laerm;65076;52.362;6.588;2023-02-28T02:34:56;36.09;32.83;40.14;;
76261;Laerm;65076;52.362;6.588;2023-02-28T02:37:36;36.35;32.79;41.83;;
76261;Laerm;65076;52.362;6.588;2023-02-28T02:40:15;36.09;32.52;42.48;;
76261;Laerm;65076;52.362;6.588;2023-02-28T02:42:51;35.65;32.70;41.76;;
76261;Laerm;65076;52.362;6.588;2023-02-28T02:45:30;43.44;32.75;58.63;;
76261;Laerm;65076;52.362;6.588;2023-02-28T02:48:06;36.32;31.93;43.48;;
76261;Laerm;65076;52.362;6.588;2023-02-28T02:50:41;36.50;32.98;42.18;;
76261;Laerm;65076;52.362;6.588;2023-02-28T02:53:14;36.39;33.17;42.00;;
76261;Laerm;65076;52.362;6.588;2023-02-28T02:55:50;36.94;32.97;42.18;;
76261;Laerm;65076;52.362;6.588;2023-02-28T02:58:28;38.14;33.32;48.36;;
76261;Laerm;65076;52.362;6.588;2023-02-28T03:01:02;37.56;33.44;45.03;;
76261;Laerm;65076;52.362;6.588;2023-02-28T03:03:33;67.88;33.29;79.63;;
76261;Laerm;65076;52.362;6.588;2023-02-28T03:06:04;41.83;33.88;54.58;;
76261;Laerm;65076;52.362;6.588;2023-02-28T03:08:36;38.31;32.96;48.53;;
76261;Laerm;65076;52.362;6.588;2023-02-28T03:11:10;37.82;33.89;51.79;;
76261;Laerm;65076;52.362;6.588;2023-02-28T03:17:17;34.63;31.92;38.70;;
76261;Laerm;65076;52.362;6.588;2023-02-28T03:20:02;44.37;32.12;61.73;;
76261;Laerm;65076;52.362;6.588;2023-02-28T03:23:00;35.32;32.48;38.16;;
76261;Laerm;65076;52.362;6.588;2023-02-28T03:25:38;38.04;32.11;48.70;;
76261;Laerm;65076;52.362;6.588;2023-02-28T03:28:18;36.79;32.38;46.75;;
76261;Laerm;65076;52.362;6.588;2023-02-28T03:30:56;40.14;32.60;53.93;;
76261;Laerm;65076;52.362;6.588;2023-02-28T03:33:30;39.02;32.74;50.83;;
76261;Laerm;65076;52.362;6.588;2023-02-28T03:36:06;46.40;32.13;64.79;;
76261;Laerm;65076;52.362;6.588;2023-02-28T03:38:44;36.01;33.02;40.81;;
76261;Laerm;65076;52.362;6.588;2023-02-28T03:41:19;36.30;32.89;39.84;;
76261;Laerm;65076;52.362;6.588;2023-02-28T03:43:58;67.58;32.96;79.94;;
76261;Laerm;65076;52.362;6.588;2023-02-28T03:46:32;36.89;32.68;47.26;;
76261;Laerm;65076;52.362;6.588;2023-02-28T03:49:07;34.78;31.18;38.47;;
76261;Laerm;65076;52.362;6.588;2023-02-28T03:51:42;34.06;31.24;38.17;;
76261;Laerm;65076;52.362;6.588;2023-02-28T03:54:19;46.00;31.94;63.72;;
76261;Laerm;65076;52.362;6.588;2023-02-28T03:57:03;52.03;31.17;69.76;;
76261;Laerm;65076;52.362;6.588;2023-02-28T03:59:37;48.99;31.83;68.41;;
76261;Laerm;65076;52.362;6.588;2023-02-28T04:02:07;49.31;32.15;67.79;;
76261;Laerm;65076;52.362;6.588;2023-02-28T04:04:36;49.40;31.81;68.60;;
76261;Laerm;65076;52.362;6.588;2023-02-28T04:07:07;49.81;31.75;67.76;;
76261;Laerm;65076;52.362;6.588;2023-02-28T04:09:40;69.07;32.22;82.76;;
76261;Laerm;65076;52.362;6.588;2023-02-28T04:12:08;51.04;32.16;69.20;;
76261;Laerm;65076;52.362;6.588;2023-02-28T04:14:36;58.58;32.52;76.46;;
76261;Laerm;65076;52.362;6.588;2023-02-28T04:17:04;48.98;32.71;65.62;;
76261;Laerm;65076;52.362;6.588;2023-02-28T04:19:32;52.47;32.37;68.04;;
76261;Laerm;65076;52.362;6.588;2023-02-28T04:22:00;51.14;32.21;70.70;;
76261;Laerm;65076;52.362;6.588;2023-02-28T04:24:28;54.86;33.01;69.60;;
76261;Laerm;65076;52.362;6.588;2023-02-28T04:26:58;51.26;32.25;70.13;;
76261;Laerm;65076;52.362;6.588;2023-02-28T04:29:29;51.29;31.66;70.84;;
76261;Laerm;65076;52.362;6.588;2023-02-28T04:31:59;51.97;32.29;69.36;;
76261;Laerm;65076;52.362;6.588;2023-02-28T04:34:29;53.74;32.57;69.20;;
76261;Laerm;65076;52.362;6.588;2023-02-28T04:36:58;53.34;32.96;69.78;;
76261;Laerm;65076;52.362;6.588;2023-02-28T04:39:43;52.79;32.90;69.69;;
76261;Laerm;65076;52.362;6.588;2023-02-28T04:42:13;59.96;33.82;76.55;;
76261;Laerm;65076;52.362;6.588;2023-02-28T04:44:41;51.52;33.91;70.85;;
76261;Laerm;65076;52.362;6.588;2023-02-28T04:47:09;50.58;33.60;68.13;;
76261;Laerm;65076;52.362;6.588;2023-02-28T04:49:37;50.75;34.03;69.83;;
76261;Laerm;65076;52.362;6.588;2023-02-28T04:52:05;52.49;34.59;66.95;;
76261;Laerm;65076;52.362;6.588;2023-02-28T04:54:34;53.15;34.60;66.43;;
76261;Laerm;65076;52.362;6.588;2023-02-28T04:57:02;53.54;34.69;66.27;;
76261;Laerm;65076;52.362;6.588;2023-02-28T04:59:32;54.08;35.29;71.48;;
76261;Laerm;65076;52.362;6.588;2023-02-28T05:02:00;49.57;34.09;65.22;;
76261;Laerm;65076;52.362;6.588;2023-02-28T05:04:33;52.81;34.44;66.08;;
76261;Laerm;65076;52.362;6.588;2023-02-28T05:07:03;49.66;34.60;64.31;;
76261;Laerm;65076;52.362;6.588;2023-02-28T05:09:31;56.92;36.16;70.13;;
76261;Laerm;65076;52.362;6.588;2023-02-28T05:11:59;60.97;34.59;75.81;;
76261;Laerm;65076;52.362;6.588;2023-02-28T05:14:27;53.10;33.73;68.21;;
76261;Laerm;65076;52.362;6.588;2023-02-28T05:16:57;52.46;34.33;67.72;;
76261;Laerm;65076;52.362;6.588;2023-02-28T05:19:24;54.91;36.36;67.98;;
76261;Laerm;65076;52.362;6.588;2023-02-28T05:21:54;51.64;34.72;66.62;;
76261;Laerm;65076;52.362;6.588;2023-02-28T05:24:23;51.09;35.13;68.13;;
76261;Laerm;65076;52.362;6.588;2023-02-28T05:26:53;51.18;36.68;66.63;;
76261;Laerm;65076;52.362;6.588;2023-02-28T05:29:22;53.78;38.39;72.20;;
76261;Laerm;65076;52.362;6.588;2023-02-28T05:31:50;58.62;38.00;76.38;;
76261;Laerm;65076;52.362;6.588;2023-02-28T05:34:19;54.06;36.60;68.71;;
76261;Laerm;65076;52.362;6.588;2023-02-28T05:36:48;54.12;35.01;67.69;;
76261;Laerm;65076;52.362;6.588;2023-02-28T05:39:16;58.26;35.70;75.78;;
76261;Laerm;65076;52.362;6.588;2023-02-28T05:41:44;60.14;36.60;75.85;;
76261;Laerm;65076;52.362;6.588;2023-02-28T05:44:12;54.09;35.38;66.22;;
76261;Laerm;65076;52.362;6.588;2023-02-28T05:46:40;52.02;35.15;65.12;;
76261;Laerm;65076;52.362;6.588;2023-02-28T05:49:08;56.75;35.80;68.96;;
76261;Laerm;65076;52.362;6.588;2023-02-28T05:51:38;50.03;35.58;62.95;;
76261;Laerm;65076;52.362;6.588;2023-02-28T05:54:07;51.53;36.01;63.29;;
76261;Laerm;65076;52.362;6.588;2023-02-28T05:56:35;55.30;35.93;70.74;;
76261;Laerm;65076;52.362;6.588;2023-02-28T05:59:05;53.10;36.91;71.52;;
76261;Laerm;65076;52.362;6.588;2023-02-28T06:01:36;51.21;36.41;66.02;;
76261;Laerm;65076;52.362;6.588;2023-02-28T06:04:07;55.28;36.51;72.09;;
76261;Laerm;65076;52.362;6.588;2023-02-28T06:06:47;56.37;37.34;71.57;;
76261;Laerm;65076;52.362;6.588;2023-02-28T06:09:16;58.09;38.57;70.13;;
76261;Laerm;65076;52.362;6.588;2023-02-28T06:11:44;62.88;38.88;76.54;;
76261;Laerm;65076;52.362;6.588;2023-02-28T06:14:15;55.51;38.45;66.18;;
76261;Laerm;65076;52.362;6.588;2023-02-28T06:16:44;54.73;39.46;66.35;;
76261;Laerm;65076;52.362;6.588;2023-02-28T06:19:12;61.99;40.95;76.28;;
76261;Laerm;65076;52.362;6.588;2023-02-28T06:21:41;58.60;43.17;71.64;;
76261;Laerm;65076;52.362;6.588;2023-02-28T06:24:11;57.53;41.88;66.23;;
76261;Laerm;65076;52.362;6.588;2023-02-28T06:26:39;60.41;41.07;76.12;;
76261;Laerm;65076;52.362;6.588;2023-02-28T06:29:07;56.39;37.32;68.55;;
76261;Laerm;65076;52.362;6.588;2023-02-28T06:31:35;57.82;40.49;78.08;;
76261;Laerm;65076;52.362;6.588;2023-02-28T06:34:04;55.47;38.93;68.38;;
76261;Laerm;65076;52.362;6.588;2023-02-28T06:36:32;56.96;40.40;70.89;;
76261;Laerm;65076;52.362;6.588;2023-02-28T06:39:00;58.09;40.64;71.53;;
76261;Laerm;65076;52.362;6.588;2023-02-28T06:41:29;61.66;37.73;77.98;;
76261;Laerm;65076;52.362;6.588;2023-02-28T06:44:18;57.77;39.99;76.61;;
76261;Laerm;65076;52.362;6.588;2023-02-28T06:46:46;56.79;41.57;69.09;;
76261;Laerm;65076;52.362;6.588;2023-02-28T06:49:15;55.60;40.92;66.35;;
76261;Laerm;65076;52.362;6.588;2023-02-28T06:51:44;58.65;41.03;69.46;;
76261;Laerm;65076;52.362;6.588;2023-02-28T06:54:13;56.84;41.74;68.59;;
76261;Laerm;65076;52.362;6.588;2023-02-28T06:56:43;60.24;43.43;77.17;;
76261;Laerm;65076;52.362;6.588;2023-02-28T06:59:11;58.46;42.17;71.36;;
76261;Laerm;65076;52.362;6.588;2023-02-28T07:01:39;55.09;43.22;67.81;;
76261;Laerm;65076;52.362;6.588;2023-02-28T07:04:08;58.95;44.06;75.68;;
76261;Laerm;65076;52.362;6.588;2023-02-28T07:06:36;55.26;41.92;72.04;;
76261;Laerm;65076;52.362;6.588;2023-02-28T07:09:08;54.74;41.78;67.69;;
76261;Laerm;65076;52.362;6.588;2023-02-28T07:11:39;59.79;41.62;75.70;;
76261;Laerm;65076;52.362;6.588;2023-02-28T07:14:11;54.50;41.91;70.33;;
76261;Laerm;65076;52.362;6.588;2023-02-28T07:16:39;55.31;43.35;75.88;;
76261;Laerm;65076;52.362;6.588;2023-02-28T07:19:09;64.70;45.25;75.78;;
76261;Laerm;65076;52.362;6.588;2023-02-28T07:21:40;56.97;42.99;70.06;;
76261;Laerm;65076;52.362;6.588;2023-02-28T07:24:08;50.77;42.09;69.13;;
76261;Laerm;65076;52.362;6.588;2023-02-28T07:26:38;53.40;42.49;66.28;;
76261;Laerm;65076;52.362;6.588;2023-02-28T07:29:06;53.55;42.41;71.27;;
76261;Laerm;65076;52.362;6.588;2023-02-28T07:31:36;55.62;44.72;69.05;;
76261;Laerm;65076;52.362;6.588;2023-02-28T07:34:04;56.46;41.93;65.88;;
76261;Laerm;65076;52.362;6.588;2023-02-28T07:36:32;52.58;41.31;64.47;;
76261;Laerm;65076;52.362;6.588;2023-02-28T07:39:00;52.90;42.47;63.72;;
76261;Laerm;65076;52.362;6.588;2023-02-28T07:41:31;63.31;43.16;76.13;;
76261;Laerm;65076;52.362;6.588;2023-02-28T07:44:00;62.39;45.95;77.96;;
76261;Laerm;65076;52.362;6.588;2023-02-28T07:46:29;63.40;41.39;76.38;;
76261;Laerm;65076;52.362;6.588;2023-02-28T07:49:04;56.26;42.58;68.00;;
76261;Laerm;65076;52.362;6.588;2023-02-28T07:51:33;60.38;42.42;74.92;;
76261;Laerm;65076;52.362;6.588;2023-02-28T07:54:01;57.82;40.40;76.40;;
76261;Laerm;65076;52.362;6.588;2023-02-28T07:56:29;53.44;38.50;70.71;;
76261;Laerm;65076;52.362;6.588;2023-02-28T07:58:57;55.08;39.75;69.93;;
76261;Laerm;65076;52.362;6.588;2023-02-28T08:01:25;55.97;40.18;68.86;;
76261;Laerm;65076;52.362;6.588;2023-02-28T08:03:54;53.41;39.15;65.06;;
76261;Laerm;65076;52.362;6.588;2023-02-28T08:06:25;56.42;41.24;66.37;;
76261;Laerm;65076;52.362;6.588;2023-02-28T08:08:53;55.24;38.33;66.92;;
76261;Laerm;65076;52.362;6.588;2023-02-28T08:11:22;57.94;37.73;75.27;;
76261;Laerm;65076;52.362;6.588;2023-02-28T08:13:52;53.21;36.53;66.73;;
76261;Laerm;65076;52.362;6.588;2023-02-28T08:16:20;56.16;41.79;69.98;;
76261;Laerm;65076;52.362;6.588;2023-02-28T08:18:50;53.38;36.92;69.21;;
76261;Laerm;65076;52.362;6.588;2023-02-28T08:21:19;60.14;41.59;74.95;;
76261;Laerm;65076;52.362;6.588;2023-02-28T08:23:50;50.89;35.01;67.54;;
76261;Laerm;65076;52.362;6.588;2023-02-28T08:26:19;53.91;37.50;69.65;;
76261;Laerm;65076;52.362;6.588;2023-02-28T08:28:47;51.05;36.90;62.66;;
76261;Laerm;65076;52.362;6.588;2023-02-28T08:31:16;55.09;38.69;68.25;;
76261;Laerm;65076;52.362;6.588;2023-02-28T08:33:45;56.37;37.62;69.27;;
76261;Laerm;65076;52.362;6.588;2023-02-28T08:36:15;63.20;39.89;79.63;;
76261;Laerm;65076;52.362;6.588;2023-02-28T08:38:43;56.73;38.95;67.77;;
76261;Laerm;65076;52.362;6.588;2023-02-28T08:41:14;58.45;36.34;75.36;;
76261;Laerm;65076;52.362;6.588;2023-02-28T08:43:42;56.43;36.45;69.57;;
76261;Laerm;65076;52.362;6.588;2023-02-28T08:46:13;52.88;38.32;63.45;;
76261;Laerm;65076;52.362;6.588;2023-02-28T08:48:41;54.25;35.32;63.90;;
76261;Laerm;65076;52.362;6.588;2023-02-28T08:51:13;53.77;37.13;67.40;;
76261;Laerm;65076;52.362;6.588;2023-02-28T08:53:42;54.79;38.18;67.10;;
76261;Laerm;65076;52.362;6.588;2023-02-28T08:56:14;59.82;37.85;76.69;;
76261;Laerm;65076;52.362;6.588;2023-02-28T08:58:45;55.39;39.07;70.94;;
76261;Laerm;65076;52.362;6.588;2023-02-28T09:01:16;53.09;39.15;64.54;;
76261;Laerm;65076;52.362;6.588;2023-02-28T09:03:46;56.53;38.76;67.76;;
76261;Laerm;65076;52.362;6.588;2023-02-28T09:06:18;52.01;36.31;65.75;;
76261;Laerm;65076;52.362;6.588;2023-02-28T09:08:47;54.02;37.52;65.96;;
76261;Laerm;65076;52.362;6.588;2023-02-28T09:11:17;52.42;36.73;62.42;;
76261;Laerm;65076;52.362;6.588;2023-02-28T09:13:46;62.02;36.83;78.84;;
76261;Laerm;65076;52.362;6.588;2023-02-28T09:16:16;52.38;38.43;65.57;;
76261;Laerm;65076;52.362;6.588;2023-02-28T09:18:44;59.27;35.98;76.22;;
76261;Laerm;65076;52.362;6.588;2023-02-28T09:21:14;54.51;37.17;66.15;;
76261;Laerm;65076;52.362;6.588;2023-02-28T09:23:45;54.46;41.52;65.56;;
76261;Laerm;65076;52.362;6.588;2023-02-28T09:26:17;54.72;36.60;77.33;;
76261;Laerm;65076;52.362;6.588;2023-02-28T09:28:46;52.69;39.58;70.31;;
76261;Laerm;65076;52.362;6.588;2023-02-28T09:31:16;55.93;42.71;75.18;;
76261;Laerm;65076;52.362;6.588;2023-02-28T09:33:48;54.63;36.80;68.68;;
76261;Laerm;65076;52.362;6.588;2023-02-28T09:36:16;55.92;37.37;70.01;;
76261;Laerm;65076;52.362;6.588;2023-02-28T09:38:45;55.41;36.53;66.82;;
76261;Laerm;65076;52.362;6.588;2023-02-28T09:41:19;62.61;39.69;76.33;;
76261;Laerm;65076;52.362;6.588;2023-02-28T09:43:54;55.09;42.16;76.66;;
76261;Laerm;65076;52.362;6.588;2023-02-28T09:46:32;56.98;38.43;72.57;;
76261;Laerm;65076;52.362;6.588;2023-02-28T09:49:06;51.32;39.08;68.30;;
76261;Laerm;65076;52.362;6.588;2023-02-28T09:51:47;60.48;41.39;74.88;;
76261;Laerm;65076;52.362;6.588;2023-02-28T09:54:21;60.84;37.41;86.40;;
76261;Laerm;65076;52.362;6.588;2023-02-28T09:56:56;54.06;36.63;66.15;;
76261;Laerm;65076;52.362;6.588;2023-02-28T09:59:44;55.00;43.97;70.55;;
76261;Laerm;65076;52.362;6.588;2023-02-28T10:02:46;58.03;38.26;72.13;;
76261;Laerm;65076;52.362;6.588;2023-02-28T10:05:20;55.49;37.96;70.12;;
76261;Laerm;65076;52.362;6.588;2023-02-28T10:08:08;52.35;39.19;65.32;;
76261;Laerm;65076;52.362;6.588;2023-02-28T10:10:42;59.05;36.73;77.51;;
76261;Laerm;65076;52.362;6.588;2023-02-28T10:13:24;52.97;35.59;65.32;;
76261;Laerm;65076;52.362;6.588;2023-02-28T10:16:00;52.27;38.49;63.76;;
76261;Laerm;65076;52.362;6.588;2023-02-28T10:18:39;53.56;37.95;65.01;;
76261;Laerm;65076;52.362;6.588;2023-02-28T10:21:19;57.61;47.19;72.91;;
76261;Laerm;65076;52.362;6.588;2023-02-28T10:23:49;53.12;44.57;64.67;;
76261;Laerm;65076;52.362;6.588;2023-02-28T10:26:20;61.81;39.79;77.64;;
76261;Laerm;65076;52.362;6.588;2023-02-28T10:28:53;51.27;37.61;64.00;;
76261;Laerm;65076;52.362;6.588;2023-02-28T10:31:21;55.02;39.86;70.18;;
76261;Laerm;65076;52.362;6.588;2023-02-28T10:33:51;54.08;39.42;64.66;;
76261;Laerm;65076;52.362;6.588;2023-02-28T10:36:21;53.55;38.85;67.79;;
76261;Laerm;65076;52.362;6.588;2023-02-28T10:38:50;54.33;37.94;64.52;;
76261;Laerm;65076;52.362;6.588;2023-02-28T10:41:29;58.57;39.24;74.12;;
76261;Laerm;65076;52.362;6.588;2023-02-28T10:44:20;59.48;40.39;76.01;;
76261;Laerm;65076;52.362;6.588;2023-02-28T10:46:53;50.97;37.07;65.84;;
76261;Laerm;65076;52.362;6.588;2023-02-28T10:49:23;54.86;39.90;66.68;;
76261;Laerm;65076;52.362;6.588;2023-02-28T10:51:54;53.09;37.16;64.93;;
76261;Laerm;65076;52.362;6.588;2023-02-28T10:54:29;59.84;38.05;76.75;;
76261;Laerm;65076;52.362;6.588;2023-02-28T10:57:17;59.65;38.17;75.33;;
76261;Laerm;65076;52.362;6.588;2023-02-28T10:59:51;54.11;39.94;70.05;;
76261;Laerm;65076;52.362;6.588;2023-02-28T11:02:34;55.89;40.44;68.96;;
76261;Laerm;65076;52.362;6.588;2023-02-28T11:05:24;56.17;41.61;67.83;;
76261;Laerm;65076;52.362;6.588;2023-02-28T11:07:53;55.81;38.98;66.01;;
76261;Laerm;65076;52.362;6.588;2023-02-28T11:10:28;60.12;41.76;75.84;;
76261;Laerm;65076;52.362;6.588;2023-02-28T11:12:58;57.48;39.01;74.59;;
76261;Laerm;65076;52.362;6.588;2023-02-28T11:15:30;65.98;43.72;78.57;;
76261;Laerm;65076;52.362;6.588;2023-02-28T11:18:05;55.24;40.24;65.81;;
76261;Laerm;65076;52.362;6.588;2023-02-28T11:20:54;59.47;39.28;74.05;;
76261;Laerm;65076;52.362;6.588;2023-02-28T11:23:27;53.46;40.54;65.73;;
76261;Laerm;65076;52.362;6.588;2023-02-28T11:26:00;49.48;38.58;65.18;;
76261;Laerm;65076;52.362;6.588;2023-02-28T11:28:32;51.97;37.70;66.04;;
76261;Laerm;65076;52.362;6.588;2023-02-28T11:31:15;55.83;41.25;70.61;;
76261;Laerm;65076;52.362;6.588;2023-02-28T11:33:48;54.31;39.85;65.96;;
76261;Laerm;65076;52.362;6.588;2023-02-28T11:36:21;56.92;40.48;73.41;;
76261;Laerm;65076;52.362;6.588;2023-02-28T11:38:53;61.82;38.45;78.45;;
76261;Laerm;65076;52.362;6.588;2023-02-28T11:41:51;57.53;40.64;74.36;;
76261;Laerm;65076;52.362;6.588;2023-02-28T11:44:41;52.69;38.81;63.94;;
76261;Laerm;65076;52.362;6.588;2023-02-28T11:47:19;55.99;35.76;69.45;;
76261;Laerm;65076;52.362;6.588;2023-02-28T11:50:09;59.60;39.36;74.51;;
76261;Laerm;65076;52.362;6.588;2023-02-28T11:52:50;56.66;39.89;67.04;;
76261;Laerm;65076;52.362;6.588;2023-02-28T11:55:26;52.52;39.26;73.64;;
76261;Laerm;65076;52.362;6.588;2023-02-28T11:58:29;59.82;39.04;83.71;;
76261;Laerm;65076;52.362;6.588;2023-02-28T12:01:28;56.96;40.03;72.79;;
76261;Laerm;65076;52.362;6.588;2023-02-28T12:04:21;54.66;36.12;70.21;;
76261;Laerm;65076;52.362;6.588;2023-02-28T12:07:00;55.56;41.74;68.76;;
76261;Laerm;65076;52.362;6.588;2023-02-28T12:09:53;58.09;40.43;75.41;;
76261;Laerm;65076;52.362;6.588;2023-02-28T12:12:38;52.99;40.25;68.19;;
76261;Laerm;65076;52.362;6.588;2023-02-28T12:15:25;55.50;39.73;64.87;;
76261;Laerm;65076;52.362;6.588;2023-02-28T12:18:23;49.67;38.40;62.85;;
76261;Laerm;65076;52.362;6.588;2023-02-28T12:21:04;62.14;40.39;76.07;;
76261;Laerm;65076;52.362;6.588;2023-02-28T12:23:56;56.01;38.52;72.46;;
76261;Laerm;65076;52.362;6.588;2023-02-28T12:26:37;54.55;40.56;70.16;;
76261;Laerm;65076;52.362;6.588;2023-02-28T12:29:15;51.53;39.72;70.04;;
76261;Laerm;65076;52.362;6.588;2023-02-28T12:31:52;55.40;41.44;66.42;;
76261;Laerm;65076;52.362;6.588;2023-02-28T12:34:27;54.96;41.36;66.66;;
76261;Laerm;65076;52.362;6.588;2023-02-28T12:37:06;53.01;37.69;65.45;;
76261;Laerm;65076;52.362;6.588;2023-02-28T12:39:40;58.37;40.66;75.39;;
76261;Laerm;65076;52.362;6.588;2023-02-28T12:42:24;55.44;39.11;66.23;;
76261;Laerm;65076;52.362;6.588;2023-02-28T12:45:01;52.06;40.27;63.59;;
76261;Laerm;65076;52.362;6.588;2023-02-28T12:47:29;56.98;37.20;73.56;;
76261;Laerm;65076;52.362;6.588;2023-02-28T12:50:06;57.11;38.94;74.71;;
76261;Laerm;65076;52.362;6.588;2023-02-28T12:52:47;53.29;39.61;68.70;;
76261;Laerm;65076;52.362;6.588;2023-02-28T12:55:29;55.93;39.46;69.25;;
76261;Laerm;65076;52.362;6.588;2023-02-28T12:58:10;56.96;39.36;74.84;;
76261;Laerm;65076;52.362;6.588;2023-02-28T13:04:19;54.06;39.62;67.31;;
76261;Laerm;65076;52.362;6.588;2023-02-28T13:07:12;52.56;37.96;63.83;;
76261;Laerm;65076;52.362;6.588;2023-02-28T13:09:55;60.62;37.47;77.55;;
76261;Laerm;65076;52.362;6.588;2023-02-28T13:12:24;53.17;38.49;68.30;;
76261;Laerm;65076;52.362;6.588;2023-02-28T13:15:06;51.38;40.92;68.48;;
76261;Laerm;65076;52.362;6.588;2023-02-28T13:17:40;51.89;38.22;65.99;;
76261;Laerm;65076;52.362;6.588;2023-02-28T13:20:17;59.42;38.63;73.45;;
76261;Laerm;65076;52.362;6.588;2023-02-28T13:22:49;53.94;38.00;70.70;;
76261;Laerm;65076;52.362;6.588;2023-02-28T13:25:52;53.77;40.97;69.24;;
76261;Laerm;65076;52.362;6.588;2023-02-28T13:29:21;55.45;41.02;68.66;;
76261;Laerm;65076;52.362;6.588;2023-02-28T13:32:34;53.69;38.42;66.09;;
76261;Laerm;65076;52.362;6.588;2023-02-28T13:35:43;54.25;37.71;71.05;;
76261;Laerm;65076;52.362;6.588;2023-02-28T13:38:34;61.37;41.25;76.06;;
76261;Laerm;65076;52.362;6.588;2023-02-28T13:41:42;57.04;37.84;74.29;;
76261;Laerm;65076;52.362;6.588;2023-02-28T13:44:12;52.07;37.12;65.38;;
76261;Laerm;65076;52.362;6.588;2023-02-28T13:47:24;55.43;37.98;67.08;;
76261;Laerm;65076;52.362;6.588;2023-02-28T13:50:19;59.27;39.22;75.48;;
76261;Laerm;65076;52.362;6.588;2023-02-28T13:55:50;52.69;38.55;71.85;;
76261;Laerm;65076;52.362;6.588;2023-02-28T13:58:40;53.05;37.35;70.52;;
76261;Laerm;65076;52.362;6.588;2023-02-28T14:01:30;54.87;40.58;67.44;;
76261;Laerm;65076;52.362;6.588;2023-02-28T14:04:39;55.04;40.12;76.22;;
76261;Laerm;65076;52.362;6.588;2023-02-28T14:07:21;55.15;35.16;66.60;;
76261;Laerm;65076;52.362;6.588;2023-02-28T14:10:01;58.38;37.94;78.02;;
76261;Laerm;65076;52.362;6.588;2023-02-28T14:13:02;55.82;36.58;74.00;;
76261;Laerm;65076;52.362;6.588;2023-02-28T14:15:41;53.42;38.20;66.14;;
76261;Laerm;65076;52.362;6.588;2023-02-28T14:18:27;54.42;37.52;65.78;;
76261;Laerm;65076;52.362;6.588;2023-02-28T14:21:04;62.95;39.72;77.44;;
76261;Laerm;65076;52.362;6.588;2023-02-28T14:23:55;54.88;36.04;66.68;;
76261;Laerm;65076;52.362;6.588;2023-02-28T14:26:57;54.35;38.54;70.21;;
76261;Laerm;65076;52.362;6.588;2023-02-28T14:30:01;57.70;43.15;78.86;;
76261;Laerm;65076;52.362;6.588;2023-02-28T14:32:43;54.63;42.10;68.12;;
76261;Laerm;65076;52.362;6.588;2023-02-28T14:35:42;54.43;40.14;70.64;;
76261;Laerm;65076;52.362;6.588;2023-02-28T14:38:20;54.18;40.11;65.91;;
76261;Laerm;65076;52.362;6.588;2023-02-28T14:40:53;59.80;39.00;75.47;;
76261;Laerm;65076;52.362;6.588;2023-02-28T14:43:25;58.72;42.06;78.32;;